createdAt,value
2018-04-13T00:00:13.308Z,90.70
2018-04-13T00:02:40.732Z,90.70
2018-04-13T00:05:08.937Z,90.90
2018-04-13T00:07:36.393Z,90.90
2018-04-13T00:10:03.852Z,90.90
2018-04-13T00:12:31.293Z,91.00
2018-04-13T00:14:58.737Z,91.00
2018-04-13T00:17:26.179Z,91.00
2018-04-13T00:19:53.617Z,91.10
2018-04-13T00:22:21.049Z,91.30
2018-04-13T00:24:48.939Z,91.70
2018-04-13T00:27:16.411Z,91.50
2018-04-13T00:29:43.835Z,91.40
2018-04-13T00:32:11.276Z,91.40
2018-04-13T00:34:38.715Z,91.60
2018-04-13T00:37:06.163Z,91.60
2018-04-13T00:39:33.591Z,91.60
2018-04-13T00:42:01.801Z,91.70
2018-04-13T00:44:29.233Z,91.70
2018-04-13T00:46:57.447Z,92.00
2018-04-13T00:49:24.885Z,92.00
2018-04-13T00:51:52.328Z,92.10
2018-04-13T00:54:19.763Z,92.00
2018-04-13T00:56:47.969Z,91.90
2018-04-13T00:59:15.413Z,92.20
2018-04-13T01:01:42.849Z,92.00
2018-04-13T01:04:11.051Z,92.10
2018-04-13T01:06:38.496Z,92.00
2018-04-13T01:09:05.968Z,92.10
2018-04-13T01:11:33.407Z,92.10
2018-04-13T01:14:00.849Z,92.20
2018-04-13T01:16:29.057Z,92.20
2018-04-13T01:18:56.492Z,92.20
2018-04-13T01:21:23.932Z,92.30
2018-04-13T01:23:52.133Z,92.40
2018-04-13T01:26:19.577Z,92.40
2018-04-13T01:28:47.013Z,92.60
2018-04-13T01:31:15.216Z,92.50
2018-04-13T01:33:42.661Z,92.50
2018-04-13T01:36:10.096Z,92.50
2018-04-13T01:38:38.301Z,92.50
2018-04-13T01:41:05.808Z,92.50
2018-04-13T01:43:33.245Z,92.50
2018-04-13T01:46:00.700Z,92.50
2018-04-13T01:48:28.154Z,92.60
2018-04-13T01:50:55.600Z,92.60
2018-04-13T01:53:23.036Z,92.60
2018-04-13T01:55:50.481Z,92.50
2018-04-13T01:58:17.920Z,92.40
2018-04-13T02:00:46.126Z,92.60
2018-04-13T02:03:13.571Z,92.60
2018-04-13T02:05:41.034Z,92.60
2018-04-13T02:08:08.472Z,92.50
2018-04-13T02:10:35.909Z,92.50
2018-04-13T02:13:04.116Z,92.50
2018-04-13T02:15:31.552Z,92.50
2018-04-13T02:17:59.000Z,92.60
2018-04-13T02:20:27.204Z,92.60
2018-04-13T02:22:54.681Z,92.60
2018-04-13T02:25:22.092Z,92.60
2018-04-13T02:27:49.539Z,92.50
2018-04-13T02:30:17.744Z,92.40
2018-04-13T02:32:45.189Z,92.40
2018-04-13T02:35:12.621Z,92.30
2018-04-13T02:37:40.834Z,92.30
2018-04-13T02:40:08.269Z,92.30
2018-04-13T02:42:35.725Z,92.30
2018-04-13T02:45:03.159Z,92.80
2018-04-13T02:47:31.364Z,93.00
2018-04-13T02:49:58.791Z,93.00
2018-04-13T02:52:27.010Z,93.60
2018-04-13T02:54:54.442Z,93.60
2018-04-13T02:57:21.881Z,93.40
2018-04-13T02:59:50.320Z,93.70
2018-04-13T03:02:17.762Z,93.70
2018-04-13T03:04:45.193Z,93.80
2018-04-13T03:07:12.631Z,93.90
2018-04-13T03:09:40.074Z,93.80
2018-04-13T03:12:08.277Z,93.70
2018-04-13T03:14:35.716Z,93.60
2018-04-13T03:17:03.161Z,93.70
2018-04-13T03:19:31.357Z,93.80
2018-04-13T03:21:58.800Z,93.80
2018-04-13T03:24:26.246Z,93.80
2018-04-13T03:26:54.445Z,94.40
2018-04-13T03:29:21.878Z,94.40
2018-04-13T03:31:51.284Z,94.40
2018-04-13T03:34:19.484Z,94.50
2018-04-13T03:36:46.930Z,94.40
2018-04-13T03:39:14.383Z,94.50
2018-04-13T03:41:41.841Z,94.40
2018-04-13T03:44:09.278Z,94.40
2018-04-13T03:46:37.481Z,94.20
2018-04-13T03:49:05.861Z,94.20
2018-04-13T03:51:33.293Z,94.30
2018-04-13T03:54:00.731Z,94.20
2018-04-13T03:56:28.930Z,94.20
2018-04-13T03:58:56.368Z,94.20
2018-04-13T04:01:23.800Z,94.20
2018-04-13T04:03:51.240Z,94.20
2018-04-13T04:06:18.669Z,94.30
2018-04-13T04:08:46.116Z,94.30
2018-04-13T04:11:13.563Z,94.30
2018-04-13T04:13:41.004Z,94.20
2018-04-13T04:16:08.436Z,94.20
2018-04-13T04:18:36.649Z,94.20
2018-04-13T04:21:16.018Z,94.20
2018-04-13T04:23:55.422Z,94.20
2018-04-13T04:26:34.813Z,94.10
2018-04-13T04:29:03.023Z,94.50
2018-04-13T04:31:30.467Z,94.20
2018-04-13T04:33:58.661Z,94.20
2018-04-13T04:36:26.101Z,94.20
2018-04-13T04:38:53.549Z,94.20
2018-04-13T04:41:21.744Z,94.20
2018-04-13T04:43:49.191Z,94.20
2018-04-13T04:46:16.612Z,94.20
2018-04-13T04:48:44.844Z,94.20
2018-04-13T04:51:12.280Z,94.10
2018-04-13T04:53:39.721Z,94.10
2018-04-13T04:56:07.153Z,94.10
2018-04-13T04:58:35.362Z,94.60
2018-04-13T05:01:02.793Z,94.20
2018-04-13T05:03:30.991Z,94.30
2018-04-13T05:05:58.418Z,94.30
2018-04-13T05:08:26.628Z,93.80
2018-04-13T05:10:54.060Z,94.30
2018-04-13T05:13:21.496Z,93.70
2018-04-13T05:15:49.697Z,93.60
2018-04-13T05:18:17.158Z,93.40
2018-04-13T05:20:44.601Z,93.30
2018-04-13T05:23:12.796Z,93.70
2018-04-13T05:25:40.227Z,93.70
2018-04-13T05:28:07.681Z,93.70
2018-04-13T05:30:35.877Z,93.80
2018-04-13T05:33:03.332Z,93.80
2018-04-13T05:35:30.773Z,93.40
2018-04-13T05:37:58.225Z,93.40
2018-04-13T05:40:25.657Z,93.40
2018-04-13T05:42:53.092Z,93.50
2018-04-13T05:45:20.531Z,93.60
2018-04-13T05:47:47.983Z,93.60
2018-04-13T05:50:15.413Z,93.50
2018-04-13T05:52:42.858Z,93.40
2018-04-13T05:55:11.051Z,93.30
2018-04-13T05:57:38.494Z,93.30
2018-04-13T06:00:05.932Z,93.30
2018-04-13T06:02:34.145Z,93.50
2018-04-13T06:05:01.589Z,93.50
2018-04-13T06:07:29.037Z,93.50
2018-04-13T06:09:56.485Z,93.10
2018-04-13T06:12:23.927Z,92.50
2018-04-13T06:14:52.163Z,91.60
2018-04-13T06:17:19.577Z,91.60
2018-04-13T06:19:47.020Z,91.70
2018-04-13T06:22:15.216Z,90.50
2018-04-13T06:24:42.714Z,90.50
2018-04-13T06:27:10.144Z,90.20
2018-04-13T06:29:37.615Z,89.70
2018-04-13T06:32:05.020Z,89.80
2018-04-13T06:34:32.455Z,89.40
2018-04-13T06:37:00.662Z,89.00
2018-04-13T06:39:28.125Z,88.20
2018-04-13T06:41:55.559Z,88.20
2018-04-13T06:44:23.006Z,86.70
2018-04-13T06:46:51.210Z,86.80
2018-04-13T06:49:18.665Z,86.80
2018-04-13T06:51:46.103Z,86.50
2018-04-13T06:54:13.556Z,86.10
2018-04-13T06:56:40.999Z,86.50
2018-04-13T06:59:09.532Z,84.30
2018-04-13T07:01:36.984Z,84.30
2018-04-13T07:04:04.428Z,84.30
2018-04-13T07:06:31.872Z,84.00
2018-04-13T07:08:59.323Z,83.00
2018-04-13T07:11:26.748Z,81.80
2018-04-13T07:13:54.189Z,80.80
2018-04-13T07:16:21.620Z,80.70
2018-04-13T07:18:49.071Z,79.30
2018-04-13T07:21:16.514Z,79.10
2018-04-13T07:23:43.952Z,78.10
2018-04-13T07:26:11.389Z,77.70
2018-04-13T07:28:39.585Z,76.10
2018-04-13T07:31:07.016Z,76.10
2018-04-13T07:33:35.213Z,77.00
2018-04-13T07:36:02.652Z,77.00
2018-04-13T07:38:30.857Z,76.70
2018-04-13T07:40:58.312Z,76.70
2018-04-13T07:43:25.748Z,76.50
2018-04-13T07:45:53.214Z,75.80
2018-04-13T07:48:20.665Z,76.40
2018-04-13T07:50:48.864Z,75.90
2018-04-13T07:53:16.293Z,75.90
2018-04-13T07:55:43.744Z,75.20
2018-04-13T07:58:12.334Z,75.40
2018-04-13T08:00:39.374Z,75.40
2018-04-13T08:03:06.829Z,74.90
2018-04-13T08:05:34.261Z,74.70
2018-04-13T08:08:02.460Z,74.40
2018-04-13T08:10:29.921Z,74.30
2018-04-13T08:12:57.353Z,73.40
2018-04-13T08:15:25.565Z,72.50
2018-04-13T08:17:53.012Z,72.50
2018-04-13T08:20:20.470Z,71.00
2018-04-13T08:22:47.900Z,70.90
2018-04-13T08:25:16.117Z,70.60
2018-04-13T08:27:43.552Z,70.60
2018-04-13T08:30:11.040Z,69.60
2018-04-13T08:32:38.429Z,69.00
2018-04-13T08:35:06.649Z,69.70
2018-04-13T08:37:34.092Z,69.70
2018-04-13T08:40:01.525Z,68.60
2018-04-13T08:42:29.729Z,68.50
2018-04-13T08:44:57.176Z,68.40
2018-04-13T08:47:24.621Z,68.60
2018-04-13T08:49:52.062Z,68.00
2018-04-13T08:52:20.256Z,68.10
2018-04-13T08:54:47.692Z,68.10
2018-04-13T08:57:15.895Z,68.40
2018-04-13T08:59:43.331Z,68.30
2018-04-13T09:02:10.757Z,68.10
2018-04-13T09:04:38.192Z,68.10
2018-04-13T09:07:05.633Z,67.70
2018-04-13T09:09:33.067Z,66.90
2018-04-13T09:12:00.519Z,67.30
2018-04-13T09:14:39.712Z,65.70
2018-04-13T09:17:07.148Z,65.10
2018-04-13T09:19:34.588Z,63.00
2018-04-13T09:22:02.024Z,62.40
2018-04-13T09:24:29.474Z,61.40
2018-04-13T09:26:57.157Z,60.50
2018-04-13T09:29:25.128Z,59.30
2018-04-13T09:31:52.549Z,59.20
2018-04-13T09:34:19.980Z,57.80
2018-04-13T09:36:48.189Z,57.40
2018-04-13T09:39:15.647Z,57.30
2018-04-13T09:41:43.076Z,55.60
2018-04-13T09:44:11.264Z,56.20
2018-04-13T09:46:38.708Z,56.20
2018-04-13T09:49:06.137Z,56.40
2018-04-13T09:51:33.581Z,55.80
2018-04-13T09:54:01.008Z,55.50
2018-04-13T09:56:28.452Z,54.40
2018-04-13T09:58:55.896Z,53.40
2018-04-13T10:01:23.333Z,53.20
2018-04-13T10:03:57.224Z,51.80
2018-04-13T10:06:24.669Z,51.80
2018-04-13T10:08:52.092Z,52.90
2018-04-13T10:11:19.538Z,51.30
2018-04-13T10:13:46.989Z,51.70
2018-04-13T10:16:14.437Z,51.50
2018-04-13T10:18:41.860Z,51.90
2018-04-13T10:21:10.070Z,53.10
2018-04-13T10:23:37.492Z,52.70
2018-04-13T10:26:05.696Z,52.50
2018-04-13T10:28:33.132Z,52.50
2018-04-13T10:31:01.345Z,52.30
2018-04-13T10:33:28.781Z,52.30
2018-04-13T10:35:56.213Z,53.00
2018-04-13T10:38:24.413Z,52.60
2018-04-13T10:40:51.884Z,52.60
2018-04-13T10:43:19.299Z,52.80
2018-04-13T10:45:47.507Z,52.20
2018-04-13T10:48:14.934Z,52.20
2018-04-13T10:50:42.377Z,52.20
2018-04-13T10:53:10.573Z,52.10
2018-04-13T10:55:38.006Z,52.10
2018-04-13T10:58:06.211Z,52.40
2018-04-13T11:00:33.648Z,52.30
2018-04-13T11:03:01.088Z,52.50
2018-04-13T11:05:29.290Z,52.60
2018-04-13T11:07:56.733Z,52.60
2018-04-13T11:10:24.156Z,52.20
2018-04-13T11:12:51.597Z,53.10
2018-04-13T11:15:19.044Z,50.60
2018-04-13T11:17:46.472Z,51.20
2018-04-13T11:20:14.339Z,49.40
2018-04-13T11:22:41.765Z,48.90
2018-04-13T11:25:09.965Z,48.10
2018-04-13T11:27:37.411Z,48.00
2018-04-13T11:30:04.844Z,48.30
2018-04-13T11:32:33.050Z,50.20
2018-04-13T11:35:00.485Z,50.20
2018-04-13T11:37:28.700Z,50.20
2018-04-13T11:39:56.161Z,49.60
2018-04-13T11:42:23.619Z,49.70
2018-04-13T11:44:51.045Z,48.70
2018-04-13T11:47:18.480Z,49.00
2018-04-13T11:49:45.911Z,49.40
2018-04-13T11:52:13.348Z,49.30
2018-04-13T11:54:40.795Z,48.60
2018-04-13T11:57:08.233Z,49.70
2018-04-13T11:59:35.664Z,49.70
2018-04-13T12:02:03.275Z,50.50
2018-04-13T12:04:31.509Z,51.20
2018-04-13T12:06:58.936Z,51.10
2018-04-13T12:09:27.141Z,51.70
2018-04-13T12:11:54.591Z,51.60
2018-04-13T12:14:22.016Z,51.90
2018-04-13T12:16:50.236Z,52.90
2018-04-13T12:19:17.665Z,52.80
2018-04-13T12:21:45.114Z,53.30
2018-04-13T12:24:12.543Z,54.70
2018-04-13T12:26:39.981Z,54.80
2018-04-13T12:29:07.424Z,55.20
2018-04-13T12:31:34.860Z,55.60
2018-04-13T12:34:02.300Z,56.10
2018-04-13T12:36:29.736Z,56.10
2018-04-13T12:38:57.952Z,56.50
2018-04-13T12:41:25.395Z,56.50
2018-04-13T12:43:52.825Z,56.40
2018-04-13T12:46:21.042Z,56.00
2018-04-13T12:48:48.488Z,56.00
2018-04-13T12:51:15.920Z,56.60
2018-04-13T12:53:43.377Z,57.20
2018-04-13T12:56:11.640Z,58.10
2018-04-13T12:58:39.004Z,58.00
2018-04-13T13:01:06.441Z,58.80
2018-04-13T13:03:34.648Z,58.60
2018-04-13T13:06:02.082Z,58.60
2018-04-13T13:08:30.284Z,58.90
2018-04-13T13:10:57.716Z,58.80
2018-04-13T13:13:25.159Z,58.30
2018-04-13T13:15:53.357Z,57.80
2018-04-13T13:18:20.787Z,57.80
2018-04-13T13:20:48.981Z,58.00
2018-04-13T13:23:16.437Z,58.00
2018-04-13T13:25:43.870Z,58.00
2018-04-13T13:28:12.080Z,57.50
2018-04-13T13:30:39.530Z,57.50
2018-04-13T13:33:06.965Z,57.30
2018-04-13T13:35:34.400Z,57.10
2018-04-13T13:38:01.844Z,57.40
2018-04-13T13:40:29.277Z,57.60
2018-04-13T13:42:57.482Z,57.10
2018-04-13T13:45:24.916Z,57.10
2018-04-13T13:47:52.361Z,57.20
2018-04-13T13:50:19.808Z,57.10
2018-04-13T13:52:47.265Z,57.30
2018-04-13T13:55:14.720Z,57.60
2018-04-13T13:57:42.165Z,56.20
2018-04-13T14:00:09.596Z,56.60
2018-04-13T14:02:37.041Z,56.60
2018-04-13T14:05:05.245Z,57.20
2018-04-13T14:07:33.217Z,57.20
2018-04-13T14:10:00.652Z,57.40
2018-04-13T14:12:28.076Z,57.40
2018-04-13T14:14:55.572Z,57.70
2018-04-13T14:17:22.957Z,57.70
2018-04-13T14:19:50.398Z,57.80
2018-04-13T14:22:17.847Z,57.90
2018-04-13T14:24:45.280Z,57.60
2018-04-13T14:27:12.709Z,57.70
2018-04-13T14:29:40.144Z,57.80
2018-04-13T14:32:07.585Z,58.10
2018-04-13T14:34:35.039Z,57.80
2018-04-13T14:37:02.468Z,58.10
2018-04-13T14:39:29.920Z,58.40
2018-04-13T14:41:57.360Z,58.80
2018-04-13T14:44:25.583Z,58.80
2018-04-13T14:46:53.012Z,58.70
2018-04-13T14:49:20.445Z,58.40
2018-04-13T14:51:48.645Z,58.90
2018-04-13T14:54:16.106Z,58.80
2018-04-13T14:56:43.524Z,58.70
2018-04-13T14:59:11.743Z,59.20
2018-04-13T15:01:40.120Z,59.10
2018-04-13T15:04:07.564Z,58.90
2018-04-13T15:06:34.997Z,58.70
2018-04-13T15:09:03.206Z,59.30
2018-04-13T15:11:30.652Z,59.20
2018-04-13T15:13:58.093Z,59.20
2018-04-13T15:16:25.525Z,59.70
2018-04-13T15:18:53.727Z,60.20
2018-04-13T15:21:21.154Z,60.10
2018-04-13T15:23:49.362Z,60.50
2018-04-13T15:26:16.794Z,60.40
2018-04-13T15:28:44.997Z,60.00
2018-04-13T15:31:12.425Z,60.00
2018-04-13T15:33:39.868Z,59.40
2018-04-13T15:36:08.061Z,59.40
2018-04-13T15:38:35.492Z,59.40
2018-04-13T15:41:03.700Z,58.90
2018-04-13T15:43:31.142Z,58.90
2018-04-13T15:45:58.576Z,58.80
2018-04-13T15:50:51.464Z,60.70
2018-04-13T15:53:18.898Z,60.60
2018-04-13T15:55:47.111Z,61.00
2018-04-13T15:58:14.531Z,61.00
2018-04-13T16:00:42.741Z,62.60
2018-04-13T16:03:10.674Z,62.50
2018-04-13T16:05:38.886Z,63.10
2018-04-13T16:08:06.334Z,63.10
2018-04-13T16:10:33.772Z,63.40
2018-04-13T16:13:01.210Z,63.30
2018-04-13T16:15:29.421Z,64.10
2018-04-13T16:17:57.489Z,64.00
2018-04-13T16:20:24.919Z,63.80
2018-04-13T16:22:52.362Z,63.90
2018-04-13T16:25:19.789Z,63.70
2018-04-13T16:27:47.244Z,64.00
2018-04-13T16:30:14.697Z,64.30
2018-04-13T16:32:42.136Z,64.40
2018-04-13T16:35:09.579Z,64.50
2018-04-13T16:37:37.004Z,64.80
2018-04-13T16:40:05.220Z,64.70
2018-04-13T16:42:32.669Z,64.70
2018-04-13T16:45:00.121Z,64.60
2018-04-13T16:47:27.533Z,65.40
2018-04-13T16:49:55.738Z,65.80
2018-04-13T16:52:23.167Z,65.60
2018-04-13T16:54:51.369Z,65.90
2018-04-13T16:57:18.808Z,65.90
2018-04-13T16:59:46.249Z,66.40
2018-04-13T17:02:14.454Z,67.00
2018-04-13T17:04:41.890Z,66.90
2018-04-13T17:07:09.320Z,67.40
2018-04-13T17:09:36.760Z,67.90
2018-04-13T17:12:04.204Z,68.20
2018-04-13T17:14:31.631Z,68.00
2018-04-13T17:16:59.060Z,68.10
2018-04-13T17:19:27.283Z,69.00
2018-04-13T17:21:54.704Z,69.00
2018-04-13T17:24:22.145Z,69.20
2018-04-13T17:26:50.349Z,69.50
2018-04-13T17:29:17.834Z,69.40
2018-04-13T17:31:45.980Z,70.00
2018-04-13T17:34:13.405Z,69.90
2018-04-13T17:36:41.614Z,70.40
2018-04-13T17:39:09.025Z,70.30
2018-04-13T17:41:37.244Z,70.70
2018-04-13T17:44:04.681Z,70.70
2018-04-13T17:46:32.121Z,70.90
2018-04-13T17:48:59.593Z,71.10
2018-04-13T17:51:27.036Z,71.40
2018-04-13T17:53:54.471Z,71.60
2018-04-13T17:56:22.668Z,71.90
2018-04-13T17:58:50.104Z,71.80
2018-04-13T18:01:18.320Z,72.00
2018-04-13T18:03:45.758Z,72.00
2018-04-13T18:06:13.200Z,72.10
2018-04-13T18:08:40.641Z,72.40
2018-04-13T18:11:08.846Z,72.60
2018-04-13T18:13:36.281Z,72.60
2018-04-13T18:16:04.476Z,73.10
2018-04-13T18:18:31.913Z,73.10
2018-04-13T18:20:59.356Z,73.40
2018-04-13T18:23:27.549Z,73.60
2018-04-13T18:25:54.988Z,73.60
2018-04-13T18:28:23.202Z,73.30
2018-04-13T18:30:50.660Z,73.30
2018-04-13T18:33:18.092Z,73.50
2018-04-13T18:35:45.529Z,73.70
2018-04-13T18:38:13.733Z,73.60
2018-04-13T18:40:41.591Z,73.60
2018-04-13T18:43:09.026Z,73.60
2018-04-13T18:45:37.227Z,73.90
2018-04-13T18:48:04.667Z,73.90
2018-04-13T18:50:32.105Z,74.00
2018-04-13T18:53:00.306Z,73.30
2018-04-13T18:55:27.746Z,73.30
2018-04-13T18:57:55.202Z,72.80
2018-04-13T19:00:22.622Z,71.80
2018-04-13T19:02:50.059Z,71.50
2018-04-13T19:05:17.496Z,71.60
2018-04-13T19:07:44.940Z,71.60
2018-04-13T19:10:12.370Z,71.10
2018-04-13T19:12:40.575Z,70.70
2018-04-13T19:15:08.009Z,70.70
2018-04-13T19:17:35.448Z,70.90
2018-04-13T19:20:03.652Z,71.90
2018-04-13T19:22:31.093Z,71.10
2018-04-13T19:24:58.520Z,71.10
2018-04-13T19:27:25.972Z,71.20
2018-04-13T19:29:53.400Z,71.30
2018-04-13T19:32:20.857Z,71.60
2018-04-13T19:34:49.058Z,71.40
2018-04-13T19:37:16.488Z,71.40
2018-04-13T19:39:43.935Z,71.70
2018-04-13T19:42:11.361Z,71.80
2018-04-13T19:44:38.792Z,71.80
2018-04-13T19:47:07.003Z,72.20
2018-04-13T19:49:34.433Z,72.10
2018-04-13T19:52:01.876Z,72.20
2018-04-13T19:54:30.068Z,72.80
2018-04-13T19:56:57.509Z,72.70
2018-04-13T19:59:25.720Z,72.90
2018-04-13T20:01:53.162Z,72.80
2018-04-13T20:04:20.604Z,73.10
2018-04-13T20:06:48.031Z,73.30
2018-04-13T20:09:15.473Z,73.70
2018-04-13T20:11:42.913Z,74.10
2018-04-13T20:14:10.343Z,74.30
2018-04-13T20:16:37.781Z,74.50
2018-04-13T20:19:05.991Z,75.80
2018-04-13T20:21:33.416Z,75.70
2018-04-13T20:24:00.862Z,76.30
2018-04-13T20:26:29.061Z,77.30
2018-04-13T20:28:56.492Z,77.30
2018-04-13T20:31:23.925Z,77.80
2018-04-13T20:33:51.348Z,78.20
2018-04-13T20:36:18.790Z,78.60
2018-04-13T20:38:46.222Z,79.00
2018-04-13T20:41:13.666Z,79.50
2018-04-13T20:43:41.853Z,80.10
2018-04-13T20:46:09.288Z,80.00
2018-04-13T20:48:37.494Z,80.60
2018-04-13T20:51:04.916Z,80.60
2018-04-13T20:53:33.120Z,80.70
2018-04-13T20:56:00.565Z,80.60
2018-04-13T20:58:28.005Z,80.60
2018-04-13T21:00:56.198Z,80.90
2018-04-13T21:03:23.638Z,80.80
2018-04-13T21:05:51.832Z,81.10
2018-04-13T21:08:19.272Z,81.10
2018-04-13T21:10:46.707Z,81.30
2018-04-13T21:13:14.910Z,81.70
2018-04-13T21:15:42.341Z,81.60
2018-04-13T21:18:10.548Z,81.90
2018-04-13T21:20:38.034Z,81.90
2018-04-13T21:23:05.429Z,82.20
2018-04-13T21:25:33.630Z,82.30
2018-04-13T21:28:01.081Z,82.30
2018-04-13T21:30:28.555Z,82.30
2018-04-13T21:32:56.717Z,82.80
2018-04-13T21:35:24.151Z,82.70
2018-04-13T21:37:51.584Z,82.70
2018-04-13T21:40:19.028Z,82.70
2018-04-13T21:42:46.473Z,82.80
2018-04-13T21:45:13.916Z,82.60
2018-04-13T21:47:41.368Z,82.60
2018-04-13T21:50:08.808Z,82.80
2018-04-13T21:52:36.245Z,83.00
2018-04-13T21:55:03.677Z,82.90
2018-04-13T21:57:31.890Z,83.30
2018-04-13T21:59:59.326Z,83.30
2018-04-13T22:02:26.802Z,83.20
2018-04-13T22:04:54.982Z,83.40
2018-04-13T22:07:22.416Z,83.40
2018-04-13T22:09:49.852Z,83.30
2018-04-13T22:12:29.917Z,83.70
2018-04-13T22:14:57.353Z,83.60
2018-04-13T22:17:25.560Z,84.00
2018-04-13T22:19:52.996Z,84.00
2018-04-13T22:22:20.435Z,84.00
2018-04-13T22:24:48.632Z,83.80
2018-04-13T22:27:16.099Z,83.80
2018-04-13T22:29:43.545Z,83.50
2018-04-13T22:32:10.981Z,84.10
2018-04-13T22:34:39.198Z,83.60
2018-04-13T22:37:06.637Z,83.50
2018-04-13T22:39:34.081Z,83.70
2018-04-13T22:42:01.519Z,83.70
2018-04-13T22:44:29.721Z,83.90
2018-04-13T22:46:57.161Z,83.80
2018-04-13T22:49:25.394Z,84.20
2018-04-13T22:51:52.800Z,84.30
2018-04-13T22:54:21.020Z,84.30
2018-04-13T22:56:48.453Z,84.50
2018-04-13T22:59:15.900Z,84.50
2018-04-13T23:01:43.341Z,84.30
2018-04-13T23:04:10.784Z,84.40
2018-04-13T23:06:38.984Z,83.90
2018-04-13T23:09:06.424Z,83.80
2018-04-13T23:11:33.855Z,83.80
2018-04-13T23:14:02.074Z,84.20
2018-04-13T23:16:29.521Z,84.10
2018-04-13T23:18:56.959Z,84.30
2018-04-13T23:21:24.400Z,84.70
2018-04-13T23:23:52.605Z,85.00
2018-04-13T23:26:20.044Z,85.00
2018-04-13T23:28:47.497Z,85.40
2018-04-13T23:31:14.936Z,85.20
2018-04-13T23:33:43.162Z,84.30
2018-04-13T23:36:10.609Z,84.20
2018-04-13T23:38:38.049Z,84.10
2018-04-13T23:41:05.540Z,84.30
2018-04-13T23:43:33.000Z,84.30
2018-04-13T23:46:00.448Z,84.30
2018-04-13T23:48:27.899Z,84.40
2018-04-13T23:50:55.360Z,84.70
2018-04-13T23:53:22.788Z,84.90
2018-04-13T23:55:50.230Z,85.00
2018-04-13T23:58:17.671Z,84.80
